| time (UTC) | temp F | wind direction | speed knots | gust knots | rain 1hr in | rain 24hr in | rain mn in | humidity % | barometer mb |
| 20260505162738 | 75 | 167 | 3.5 | 5.2 | 0.00 | 0.00 | 0.00 | 41 | 1019.3 |
| 20260505162235 | 75 | 167 | 3.5 | 5.2 | 0.00 | 0.00 | 0.00 | 41 | 1019.3 |
| 20260505161732 | 75 | 256 | 5.2 | 7.0 | 0.00 | 0.00 | 0.00 | 41 | 1019.3 |
| 20260505161230 | 75 | 186 | 3.5 | 5.2 | 0.00 | 0.00 | 0.00 | 40 | 1019.4 |
| 20260505160727 | 76 | 277 | 4.3 | 6.1 | 0.00 | 0.00 | 0.00 | 42 | 1019.4 |
| 20260505160225 | 75 | 264 | 2.6 | 2.6 | 0.00 | 0.00 | 0.00 | 42 | 1019.4 |
| 20260505153203 | 73 | 127 | 0.0 | 0.0 | 0.00 | 0.00 | 0.00 | 53 | 1019.0 |
| 20260505152700 | 73 | 89 | 0.9 | 0.9 | 0.00 | 0.00 | 0.00 | 55 | 1019.4 |
| 20260505152156 | 72 | 182 | 1.7 | 1.7 | 0.00 | 0.00 | 0.00 | 51 | 1019.5 |
| 20260505151651 | 71 | 224 | 0.9 | 0.9 | 0.00 | 0.00 | 0.00 | 48 | 1019.6 |
| 20260505151149 | 71 | 84 | 0.0 | 0.9 | 0.00 | 0.00 | 0.00 | 58 | 1019.4 |
| 20260505150645 | 70 | 351 | 0.0 | 0.0 | 0.00 | 0.00 | 0.00 | 58 | 1019.5 |
| 20260505150142 | 70 | 239 | 0.9 | 0.9 | 0.00 | 0.00 | 0.00 | 57 | 1019.5 |
| 20260505140611 | 64 | 10 | 0.0 | 0.0 | 0.00 | 0.00 | 0.00 | 68 | 1019.8 |
| 20260505140108 | 63 | 0 | 0.0 | 0.0 | 0.00 | 0.00 | 0.00 | 70 | 1019.7 |
| 20260505125024 | 60 | 17 | 0.0 | 0.0 | 0.00 | 0.00 | 0.00 | 74 | 1018.8 |
| 20260505124521 | 60 | 171 | 0.0 | 0.0 | 0.00 | 0.00 | 0.00 | 71 | 1018.8 |
| 20260505124017 | 59 | 241 | 0.0 | 0.0 | 0.00 | 0.00 | 0.00 | 71 | 1018.8 |
| 20260505123514 | 58 | 200 | 0.0 | 0.0 | 0.00 | 0.00 | 0.00 | 74 | 1018.7 |
| 20260505123010 | 57 | 50 | 0.0 | 0.0 | 0.00 | 0.00 | 0.00 | 77 | 1018.6 |
| 20260505122507 | 55 | 262 | 0.0 | 0.0 | 0.00 | 0.00 | 0.00 | 79 | 1018.8 |
| 20260505122004 | 54 | 5 | 0.0 | 0.0 | 0.00 | 0.00 | 0.00 | 81 | 1018.7 |
| 20260505121501 | 54 | 5 | 0.0 | 0.0 | 0.00 | 0.00 | 0.00 | 81 | 1018.9 |
| 20260505120957 | 53 | 212 | 0.0 | 0.0 | 0.00 | 0.00 | 0.00 | 83 | 1018.9 |
| 20260505120453 | 52 | 312 | 0.0 | 0.0 | 0.00 | 0.00 | 0.00 | 84 | 1018.7 |
| 20260505115952 | 51 | 276 | 0.0 | 0.0 | 0.00 | 0.00 | 0.00 | 87 | 1018.6 |
| 20260505115449 | 51 | 275 | 0.0 | 0.0 | 0.00 | 0.00 | 0.00 | 88 | 1018.5 |
| 20260505114947 | 50 | 275 | 0.0 | 0.0 | 0.00 | 0.00 | 0.00 | 88 | 1018.7 |
| 20260505114443 | 50 | 275 | 0.0 | 0.0 | 0.00 | 0.00 | 0.00 | 89 | 1018.6 |
| 20260505113940 | 50 | 275 | 0.0 | 0.0 | 0.00 | 0.00 | 0.00 | 89 | 1018.4 |
| 20260505113436 | 50 | 275 | 0.0 | 0.0 | 0.00 | 0.00 | 0.00 | 89 | 1018.4 |
| 20260505112932 | 50 | 274 | 0.0 | 0.0 | 0.00 | 0.00 | 0.00 | 89 | 1018.4 |
| 20260505112430 | 49 | 274 | 0.0 | 0.0 | 0.00 | 0.00 | 0.00 | 89 | 1018.0 |
| 20260505111926 | 49 | 274 | 0.0 | 0.0 | 0.00 | 0.00 | 0.00 | 89 | 1018.1 |
| 20260505111420 | 49 | 259 | 0.0 | 0.0 | 0.00 | 0.00 | 0.00 | 89 | 1018.0 |
| 20260505110917 | 49 | 259 | 0.0 | 0.0 | 0.00 | 0.00 | 0.00 | 89 | 1018.1 |
| 20260505110414 | 49 | 276 | 0.0 | 0.0 | 0.00 | 0.00 | 0.00 | 88 | 1017.9 |
| 20260505101845 | 51 | 269 | 0.0 | 0.0 | 0.00 | 0.00 | 0.00 | 84 | 1018.0 |
| 20260505101339 | 51 | 342 | 0.0 | 0.0 | 0.00 | 0.00 | 0.00 | 84 | 1018.3 |
| 20260505100836 | 51 | 342 | 0.0 | 0.0 | 0.00 | 0.00 | 0.00 | 82 | 1018.3 |
| 20260505100333 | 51 | 342 | 0.0 | 0.0 | 0.00 | 0.00 | 0.00 | 82 | 1018.1 |
| 20260505095828 | 52 | 342 | 0.0 | 0.0 | 0.00 | 0.00 | 0.00 | 80 | 1018.0 |
| 20260505095326 | 52 | 73 | 0.0 | 0.0 | 0.00 | 0.00 | 0.00 | 79 | 1018.1 |
| 20260505094822 | 52 | 257 | 0.0 | 0.0 | 0.00 | 0.00 | 0.00 | 78 | 1018.1 |
| 20260505094319 | 53 | 107 | 0.0 | 0.0 | 0.00 | 0.00 | 0.00 | 78 | 1017.9 |
| 20260505093814 | 59 | 76 | 0.9 | 0.9 | 0.00 | 0.00 | 0.00 | 69 | 1017.8 |
| 20260505093312 | 60 | 257 | 0.9 | 1.7 | 0.00 | 0.00 | 0.00 | 59 | 1017.8 |
| 20260505092808 | 60 | 242 | 0.0 | 0.0 | 0.00 | 0.00 | 0.00 | 60 | 1017.8 |
| 20260505092307 | 60 | 248 | 1.7 | 1.7 | 0.00 | 0.00 | 0.00 | 59 | 1017.5 |
| 20260505091804 | 60 | 212 | 0.9 | 0.9 | 0.00 | 0.00 | 0.00 | 60 | 1017.8 |
| 20260505091302 | 60 | 247 | 0.0 | 0.9 | 0.00 | 0.00 | 0.00 | 59 | 1017.8 |
| 20260505090800 | 59 | 256 | 0.9 | 0.9 | 0.00 | 0.00 | 0.00 | 61 | 1017.7 |
| 20260505090258 | 59 | 228 | 0.0 | 0.9 | 0.00 | 0.00 | 0.00 | 60 | 1018.0 |
| 20260505085755 | 59 | 231 | 1.7 | 1.7 | 0.00 | 0.00 | 0.00 | 61 | 1017.9 |
| 20260505085253 | 59 | 227 | 0.0 | 0.0 | 0.00 | 0.00 | 0.00 | 61 | 1017.9 |
| 20260505084750 | 59 | 242 | 0.0 | 0.0 | 0.00 | 0.00 | 0.00 | 60 | 1017.9 |
| 20260505084249 | 59 | 252 | 0.0 | 0.0 | 0.00 | 0.00 | 0.00 | 60 | 1017.8 |
| 20260505083745 | 59 | 241 | 0.0 | 0.0 | 0.00 | 0.00 | 0.00 | 60 | 1017.7 |
| 20260505083242 | 59 | 235 | 0.0 | 0.0 | 0.00 | 0.00 | 0.00 | 61 | 1017.8 |
| 20260505082739 | 59 | 258 | 0.9 | 2.6 | 0.00 | 0.00 | 0.00 | 60 | 1017.8 |
| 20260505082236 | 59 | 248 | 0.0 | 0.9 | 0.00 | 0.00 | 0.00 | 61 | 1018.0 |
| 20260505081732 | 59 | 219 | 0.9 | 0.9 | 0.00 | 0.00 | 0.00 | 61 | 1018.0 |
| 20260505081229 | 59 | 234 | 0.0 | 0.0 | 0.00 | 0.00 | 0.00 | 62 | 1018.0 |
| 20260505080726 | 59 | 244 | 0.0 | 0.9 | 0.00 | 0.00 | 0.00 | 61 | 1018.0 |
| 20260505080221 | 59 | 232 | 1.7 | 1.7 | 0.00 | 0.00 | 0.00 | 60 | 1018.0 |
| 20260505075717 | 59 | 237 | 0.0 | 0.0 | 0.00 | 0.00 | 0.00 | 61 | 1017.9 |
| 20260505075215 | 59 | 247 | 0.0 | 0.0 | 0.00 | 0.00 | 0.00 | 61 | 1017.8 |
| 20260505074712 | 59 | 240 | 0.0 | 0.0 | 0.00 | 0.00 | 0.00 | 61 | 1017.9 |
| 20260505074209 | 59 | 141 | 0.0 | 0.0 | 0.00 | 0.00 | 0.00 | 61 | 1017.9 |
| 20260505073707 | 59 | 251 | 0.0 | 0.0 | 0.00 | 0.00 | 0.00 | 62 | 1017.8 |
| 20260505073204 | 59 | 245 | 0.0 | 0.0 | 0.00 | 0.00 | 0.00 | 61 | 1017.9 |
| 20260505072700 | 56 | 238 | 0.0 | 0.0 | 0.00 | 0.00 | 0.00 | 66 | 1017.9 |
| 20260505072156 | 55 | 253 | 0.0 | 0.0 | 0.00 | 0.00 | 0.00 | 72 | 1017.7 |
| 20260505071652 | 54 | 254 | 0.0 | 0.0 | 0.00 | 0.00 | 0.00 | 76 | 1017.9 |
| 20260505071150 | 53 | 254 | 0.0 | 0.0 | 0.00 | 0.00 | 0.00 | 78 | 1017.7 |
| 20260505070647 | 53 | 254 | 0.0 | 0.0 | 0.00 | 0.00 | 0.00 | 81 | 1018.0 |
| 20260505070143 | 53 | 254 | 0.0 | 0.0 | 0.00 | 0.00 | 0.00 | 82 | 1017.9 |
| 20260505065639 | 53 | 254 | 0.0 | 0.0 | 0.00 | 0.00 | 0.00 | 81 | 1017.8 |
| 20260505065136 | 52 | 254 | 0.0 | 0.0 | 0.00 | 0.00 | 0.00 | 83 | 1018.1 |
| 20260505064633 | 53 | 254 | 0.0 | 0.0 | 0.00 | 0.00 | 0.00 | 83 | 1017.8 |
| 20260505064131 | 53 | 254 | 0.0 | 0.0 | 0.00 | 0.00 | 0.00 | 83 | 1017.9 |
| 20260505063628 | 53 | 254 | 0.0 | 0.0 | 0.00 | 0.00 | 0.00 | 82 | 1017.8 |
| 20260505063124 | 53 | 254 | 0.0 | 0.0 | 0.00 | 0.00 | 0.00 | 82 | 1017.8 |
| 20260505062621 | 53 | 220 | 0.0 | 0.0 | 0.00 | 0.00 | 0.00 | 81 | 1018.0 |
| 20260505062118 | 54 | 220 | 0.0 | 0.0 | 0.00 | 0.00 | 0.00 | 79 | 1018.3 |
| 20260505061615 | 55 | 220 | 0.0 | 0.0 | 0.00 | 0.00 | 0.00 | 78 | 1018.3 |
| 20260505061113 | 55 | 220 | 0.0 | 0.0 | 0.00 | 0.00 | 0.00 | 78 | 1018.4 |
| 20260505060610 | 55 | 220 | 0.0 | 0.0 | 0.00 | 0.00 | 0.00 | 76 | 1018.0 |
| 20260505060107 | 54 | 220 | 0.0 | 0.0 | 0.00 | 0.00 | 0.00 | 74 | 1018.4 |
| 20260505055602 | 54 | 220 | 0.0 | 0.0 | 0.00 | 0.00 | 0.00 | 76 | 1018.1 |
| 20260505055059 | 54 | 220 | 0.0 | 0.0 | 0.00 | 0.00 | 0.00 | 80 | 1018.1 |
| 20260505054556 | 54 | 220 | 0.0 | 0.0 | 0.00 | 0.00 | 0.00 | 81 | 1018.1 |
| 20260505054055 | 54 | 220 | 0.0 | 0.0 | 0.00 | 0.00 | 0.00 | 81 | 1018.4 |
| 20260505053551 | 54 | 220 | 0.0 | 0.0 | 0.00 | 0.00 | 0.00 | 81 | 1018.5 |
| 20260505053048 | 54 | 220 | 0.0 | 0.0 | 0.00 | 0.00 | 0.00 | 81 | 1018.5 |
| 20260505052545 | 54 | 220 | 0.0 | 0.0 | 0.00 | 0.00 | 0.00 | 81 | 1018.3 |
| 20260505052043 | 54 | 220 | 0.0 | 0.0 | 0.00 | 0.00 | 0.00 | 81 | 1018.1 |
| 20260505051539 | 54 | 220 | 0.0 | 0.0 | 0.00 | 0.00 | 0.00 | 80 | 1018.4 |
| 20260505051037 | 55 | 220 | 0.0 | 0.0 | 0.00 | 0.00 | 0.00 | 80 | 1018.4 |
| 20260505050535 | 55 | 220 | 0.0 | 0.0 | 0.00 | 0.00 | 0.00 | 80 | 1018.3 |
| 20260505041503 | 58 | 220 | 0.0 | 0.0 | 0.00 | 0.00 | 0.00 | 70 | 1018.4 |
| 20260505041000 | 58 | 220 | 0.0 | 0.0 | 0.00 | 0.00 | 0.00 | 72 | 1018.0 |
| 20260505040457 | 58 | 220 | 0.0 | 0.0 | 0.00 | 0.00 | 0.00 | 72 | 1018.4 |
| 20260505035954 | 58 | 220 | 0.0 | 0.0 | 0.00 | 0.00 | 0.00 | 74 | 1018.3 |
| 20260505035450 | 58 | 220 | 0.0 | 0.0 | 0.00 | 0.00 | 0.00 | 74 | 1018.3 |
| 20260505034948 | 58 | 220 | 0.0 | 0.0 | 0.00 | 0.00 | 0.00 | 73 | 1018.3 |
| 20260505034444 | 58 | 220 | 0.0 | 0.0 | 0.00 | 0.00 | 0.00 | 72 | 1018.1 |
| 20260505033941 | 59 | 220 | 0.0 | 0.0 | 0.00 | 0.00 | 0.00 | 72 | 1018.5 |
| 20260505033438 | 59 | 220 | 0.0 | 0.0 | 0.00 | 0.00 | 0.00 | 69 | 1018.5 |
| 20260505032936 | 59 | 220 | 0.0 | 0.0 | 0.00 | 0.00 | 0.00 | 70 | 1018.5 |
| 20260505032433 | 59 | 220 | 0.0 | 0.0 | 0.00 | 0.00 | 0.00 | 69 | 1018.3 |
| 20260505031929 | 60 | 220 | 0.0 | 0.0 | 0.00 | 0.00 | 0.00 | 67 | 1018.3 |
| 20260505031427 | 59 | 220 | 0.0 | 0.0 | 0.00 | 0.00 | 0.00 | 66 | 1018.4 |
| 20260505030923 | 59 | 220 | 0.0 | 0.0 | 0.00 | 0.00 | 0.00 | 70 | 1018.5 |
| 20260505030419 | 59 | 220 | 0.0 | 0.0 | 0.00 | 0.00 | 0.00 | 69 | 1018.4 |
| 20260505025915 | 60 | 220 | 0.0 | 0.0 | 0.00 | 0.00 | 0.00 | 68 | 1018.3 |
| 20260505025412 | 60 | 220 | 0.0 | 0.0 | 0.00 | 0.00 | 0.00 | 68 | 1018.1 |
| 20260505024911 | 60 | 220 | 0.0 | 0.0 | 0.00 | 0.00 | 0.00 | 65 | 1018.4 |
| 20260505024408 | 60 | 220 | 0.0 | 0.0 | 0.00 | 0.00 | 0.00 | 67 | 1018.3 |
| 20260505023905 | 60 | 220 | 0.0 | 0.0 | 0.00 | 0.00 | 0.00 | 67 | 1018.0 |
| 20260505023402 | 61 | 220 | 0.0 | 0.0 | 0.00 | 0.00 | 0.00 | 66 | 1018.1 |
| 20260505022859 | 62 | 220 | 0.0 | 0.0 | 0.00 | 0.00 | 0.00 | 63 | 1018.1 |
| 20260505022356 | 62 | 220 | 0.0 | 0.0 | 0.00 | 0.00 | 0.00 | 63 | 1018.3 |
| 20260505021854 | 62 | 220 | 0.0 | 0.0 | 0.00 | 0.00 | 0.00 | 63 | 1018.3 |
| 20260505021350 | 62 | 220 | 0.0 | 0.0 | 0.00 | 0.00 | 0.00 | 60 | 1018.1 |
| 20260505020846 | 62 | 220 | 0.0 | 0.0 | 0.00 | 0.00 | 0.00 | 62 | 1018.3 |
| 20260505020342 | 63 | 220 | 0.0 | 0.0 | 0.00 | 0.00 | 0.00 | 61 | 1018.3 |
| 20260505015839 | 63 | 220 | 0.0 | 0.0 | 0.00 | 0.00 | 0.00 | 60 | 1018.1 |
| 20260505015336 | 64 | 220 | 0.0 | 0.0 | 0.00 | 0.00 | 0.00 | 58 | 1018.3 |
| 20260505014833 | 64 | 220 | 0.0 | 0.0 | 0.00 | 0.00 | 0.00 | 56 | 1017.8 |
| 20260505014330 | 65 | 220 | 0.0 | 0.0 | 0.00 | 0.00 | 0.00 | 55 | 1017.9 |
| 20260505013826 | 65 | 220 | 0.0 | 0.0 | 0.00 | 0.00 | 0.00 | 52 | 1017.8 |
| 20260505013324 | 66 | 220 | 0.0 | 0.0 | 0.00 | 0.00 | 0.00 | 53 | 1017.8 |
| 20260505012822 | 66 | 220 | 0.0 | 0.0 | 0.00 | 0.00 | 0.00 | 50 | 1017.5 |
| 20260505012319 | 66 | 220 | 0.0 | 0.0 | 0.00 | 0.00 | 0.00 | 49 | 1017.7 |
| 20260505011815 | 67 | 220 | 0.0 | 0.0 | 0.00 | 0.00 | 0.00 | 49 | 1017.7 |
| 20260505011312 | 67 | 220 | 0.0 | 0.0 | 0.00 | 0.00 | 0.00 | 48 | 1017.6 |
| 20260505010808 | 67 | 180 | 0.9 | 0.9 | 0.00 | 0.00 | 0.00 | 47 | 1017.6 |
| 20260505010304 | 68 | 226 | 0.0 | 0.0 | 0.00 | 0.00 | 0.00 | 48 | 1017.6 |
| 20260505005801 | 68 | 226 | 0.0 | 0.0 | 0.00 | 0.00 | 0.00 | 47 | 1017.7 |
| 20260505005258 | 68 | 226 | 0.0 | 0.0 | 0.00 | 0.00 | 0.00 | 47 | 1017.7 |
| 20260505004755 | 69 | 226 | 0.0 | 0.0 | 0.00 | 0.00 | 0.00 | 47 | 1017.7 |
| 20260505004251 | 69 | 241 | 0.0 | 0.0 | 0.00 | 0.00 | 0.00 | 46 | 1017.5 |
| 20260505003749 | 69 | 172 | 0.0 | 0.9 | 0.00 | 0.00 | 0.00 | 45 | 1017.4 |
| 20260505003246 | 70 | 256 | 0.0 | 0.0 | 0.00 | 0.00 | 0.00 | 44 | 1017.4 |
| 20260505002742 | 70 | 175 | 0.9 | 0.9 | 0.00 | 0.00 | 0.00 | 43 | 1017.3 |
| 20260505002240 | 71 | 247 | 1.7 | 1.7 | 0.00 | 0.00 | 0.00 | 43 | 1017.3 |
| 20260505001737 | 71 | 245 | 1.7 | 1.7 | 0.00 | 0.00 | 0.00 | 43 | 1017.3 |
| 20260505001235 | 71 | 251 | 0.0 | 0.9 | 0.00 | 0.00 | 0.00 | 43 | 1017.3 |
| 20260505000731 | 71 | 267 | 2.6 | 2.6 | 0.00 | 0.00 | 0.00 | 42 | 1017.4 |
| 20260505000229 | 72 | 224 | 0.9 | 1.7 | 0.00 | 0.00 | 0.00 | 42 | 1017.2 |
| 20260504235725 | 72 | 177 | 0.9 | 1.7 | 0.00 | 0.00 | 0.00 | 42 | 1017.3 |
| 20260504235221 | 73 | 237 | 0.0 | 0.9 | 0.00 | 0.00 | 0.00 | 41 | 1017.2 |
| 20260504234719 | 73 | 248 | 0.9 | 0.9 | 0.00 | 0.00 | 0.00 | 39 | 1017.2 |
| 20260504234216 | 73 | 248 | 1.7 | 1.7 | 0.00 | 0.00 | 0.00 | 39 | 1017.2 |
| 20260504233712 | 74 | 225 | 2.6 | 4.3 | 0.00 | 0.00 | 0.00 | 38 | 1017.1 |
| 20260504233208 | 74 | 245 | 0.9 | 1.7 | 0.00 | 0.00 | 0.00 | 40 | 1017.0 |
| 20260504232706 | 74 | 241 | 4.3 | 5.2 | 0.00 | 0.00 | 0.00 | 38 | 1017.1 |
| 20260504232203 | 74 | 258 | 2.6 | 2.6 | 0.00 | 0.00 | 0.00 | 39 | 1017.1 |
| 20260504231659 | 75 | 269 | 1.7 | 1.7 | 0.00 | 0.00 | 0.00 | 38 | 1017.1 |
| 20260504231155 | 75 | 206 | 0.0 | 0.0 | 0.00 | 0.00 | 0.00 | 39 | 1017.0 |
| 20260504230652 | 75 | 242 | 0.9 | 0.9 | 0.00 | 0.00 | 0.00 | 40 | 1017.1 |
| 20260504230151 | 75 | 225 | 0.9 | 0.9 | 0.00 | 0.00 | 0.00 | 39 | 1017.0 |
| 20260504225649 | 75 | 220 | 3.5 | 4.3 | 0.00 | 0.00 | 0.00 | 37 | 1017.0 |
| 20260504225144 | 75 | 241 | 1.7 | 2.6 | 0.00 | 0.00 | 0.00 | 38 | 1017.1 |
| 20260504224642 | 75 | 211 | 0.9 | 1.7 | 0.00 | 0.00 | 0.00 | 39 | 1016.9 |